Time;durP1;ratioP1;P1;durP2;ratioP2;P2;SDS_P1;SDS_P2;PMS_P1;PMS_P2;Temp;Humidity;BMP_temperature;BMP_pressure;BME280_temperature;BME280_humidity;BME280_pressure;Samples;Min_cycle;Max_cycle;Signal;HPM_P1;HPM_P2
2022/06/10 00:00:21;;;;;;;;;;;15.20;97.20;;;;;;5092138;28;19928;-80
2022/06/10 00:02:48;;;;;;;;;;;15.10;97.20;;;;;;5089756;28;20389;-80
2022/06/10 00:05:16;;;;;;;;;;;15.10;97.20;;;;;;5092168;28;19928;-80
2022/06/10 00:07:44;;;;;;;;;;;15.10;97.20;;;;;;5091081;28;19962;-80
2022/06/10 00:10:12;;;;;;;;;;;15.10;97.20;;;;;;5083643;28;19932;-81
2022/06/10 00:12:39;;;;;;;;;;;15.10;97.20;;;;;;5091104;28;20019;-80
2022/06/10 00:15:07;;;;;;;;;;;15.00;97.10;;;;;;5093316;28;19931;-80
2022/06/10 00:17:34;;;;;;;;;;;15.00;97.10;;;;;;5087553;28;19924;-80
2022/06/10 00:20:03;;;;;;;;;;;15.00;97.10;;;;;;5070687;28;19948;-80
2022/06/10 00:22:30;;;;;;;;;;;15.00;97.20;;;;;;5090161;28;19924;-81
2022/06/10 00:24:58;;;;;;;;;;;15.00;97.10;;;;;;5091325;28;20436;-80
2022/06/10 00:27:25;;;;;;;;;;;15.00;97.20;;;;;;5089594;28;19932;-80
2022/06/10 00:29:52;;;;;;;;;;;14.90;97.20;;;;;;5089308;28;19928;-80
2022/06/10 00:32:19;;;;;;;;;;;14.90;97.20;;;;;;5092789;28;19924;-80
2022/06/10 00:34:46;;;;;;;;;;;14.90;97.20;;;;;;5076935;28;19928;-80
2022/06/10 00:37:13;;;;;;;;;;;14.90;97.30;;;;;;5088787;28;19924;-80
2022/06/10 00:39:39;;;;;;;;;;;14.90;97.30;;;;;;5089007;28;19924;-80
2022/06/10 00:42:08;;;;;;;;;;;14.80;97.20;;;;;;5090296;28;19924;-80
2022/06/10 00:44:37;;;;;;;;;;;14.80;97.20;;;;;;5086779;28;20627;-80
2022/06/10 00:47:06;;;;;;;;;;;14.80;97.30;;;;;;5087196;28;19936;-80
2022/06/10 00:49:33;;;;;;;;;;;14.80;97.30;;;;;;5093820;28;20297;-80
2022/06/10 00:52:00;;;;;;;;;;;14.80;97.30;;;;;;5089525;28;20041;-81
2022/06/10 00:54:29;;;;;;;;;;;14.80;97.30;;;;;;5091216;28;19932;-81
2022/06/10 00:56:59;;;;;;;;;;;14.70;97.20;;;;;;5084056;28;20024;-80
2022/06/10 00:59:29;;;;;;;;;;;14.70;97.30;;;;;;5091952;28;19935;-80
2022/06/10 01:01:58;;;;;;;;;;;14.70;97.30;;;;;;5072133;28;19924;-80
2022/06/10 01:04:25;;;;;;;;;;;14.70;97.30;;;;;;5068976;28;19954;-80
2022/06/10 01:06:52;;;;;;;;;;;14.70;97.30;;;;;;5091287;28;20421;-79
2022/06/10 01:09:19;;;;;;;;;;;14.70;97.30;;;;;;5091956;28;19924;-80
2022/06/10 01:12:04;;;;;;;;;;;14.70;97.30;;;;;;5086426;28;19931;-79
2022/06/10 01:14:41;;;;;;;;;;;14.60;97.30;;;;;;5090809;28;20498;-79
2022/06/10 01:17:17;;;;;;;;;;;14.60;97.10;;;;;;5091659;28;19977;-79
2022/06/10 01:19:57;;;;;;;;;;;14.60;97.30;;;;;;5088629;28;20400;-80
2022/06/10 01:22:35;;;;;;;;;;;14.60;97.40;;;;;;5082289;28;19931;-79
2022/06/10 01:25:10;;;;;;;;;;;14.60;97.40;;;;;;5088943;28;19930;-80
2022/06/10 01:27:55;;;;;;;;;;;14.60;97.40;;;;;;5092522;28;20010;-80
2022/06/10 01:30:42;;;;;;;;;;;14.50;97.40;;;;;;5084852;28;20349;-80
2022/06/10 01:33:15;;;;;;;;;;;14.50;97.40;;;;;;5070304;28;19930;-79
2022/06/10 01:35:43;;;;;;;;;;;14.50;97.40;;;;;;5090749;28;20011;-81
2022/06/10 01:38:13;;;;;;;;;;;14.50;97.40;;;;;;5072383;28;19974;-79
2022/06/10 01:40:44;;;;;;;;;;;14.50;97.40;;;;;;5084377;28;19927;-79
2022/06/10 01:43:14;;;;;;;;;;;14.50;97.40;;;;;;5074937;28;19924;-80
2022/06/10 01:45:48;;;;;;;;;;;14.50;97.40;;;;;;5088233;28;20350;-80
2022/06/10 01:48:17;;;;;;;;;;;14.40;97.40;;;;;;5063258;28;20390;-79
2022/06/10 01:50:46;;;;;;;;;;;14.40;97.40;;;;;;5085145;28;19928;-79
2022/06/10 01:53:15;;;;;;;;;;;14.40;97.40;;;;;;5067234;28;20011;-80
2022/06/10 01:55:46;;;;;;;;;;;14.40;97.40;;;;;;5091562;28;19943;-80
2022/06/10 01:58:17;;;;;;;;;;;14.40;97.40;;;;;;5092070;28;20034;-80
2022/06/10 02:00:51;;;;;;;;;;;14.40;97.40;;;;;;5069577;28;19924;-80
2022/06/10 02:03:21;;;;;;;;;;;14.40;97.40;;;;;;5091758;28;20039;-80
2022/06/10 02:05:50;;;;;;;;;;;14.30;97.40;;;;;;5089022;28;19924;-80
2022/06/10 02:08:20;;;;;;;;;;;14.40;97.50;;;;;;5090009;28;20454;-80
2022/06/10 02:10:50;;;;;;;;;;;14.30;97.50;;;;;;5064262;28;19924;-80
2022/06/10 02:13:20;;;;;;;;;;;14.30;97.40;;;;;;5091094;28;19947;-79
2022/06/10 02:15:52;;;;;;;;;;;14.30;97.70;;;;;;5072402;28;20019;-79
2022/06/10 02:18:22;;;;;;;;;;;14.30;97.60;;;;;;5084678;28;20019;-80
2022/06/10 02:20:51;;;;;;;;;;;14.30;97.60;;;;;;5088445;28;19935;-79
2022/06/10 02:23:21;;;;;;;;;;;14.30;97.60;;;;;;5072851;28;20018;-79
2022/06/10 02:25:49;;;;;;;;;;;14.20;97.60;;;;;;5089786;28;19970;-80
2022/06/10 02:28:17;;;;;;;;;;;14.20;97.60;;;;;;5086759;28;19924;-79
2022/06/10 02:30:49;;;;;;;;;;;14.20;97.60;;;;;;5071325;28;19924;-80
2022/06/10 02:33:17;;;;;;;;;;;14.20;97.60;;;;;;5072283;28;19924;-79
2022/06/10 02:35:48;;;;;;;;;;;14.20;97.60;;;;;;5088380;28;19924;-80
2022/06/10 02:38:19;;;;;;;;;;;14.20;97.60;;;;;;5086840;28;19931;-80
2022/06/10 02:40:49;;;;;;;;;;;14.20;97.60;;;;;;5089494;28;19959;-79
2022/06/10 02:43:20;;;;;;;;;;;14.10;97.50;;;;;;5072635;28;20390;-79
2022/06/10 02:45:50;;;;;;;;;;;14.10;97.50;;;;;;5067077;28;19931;-79
2022/06/10 02:48:23;;;;;;;;;;;14.10;97.50;;;;;;5082963;28;19960;-80
2022/06/10 02:50:50;;;;;;;;;;;14.10;97.50;;;;;;5088404;28;19932;-79
2022/06/10 02:53:17;;;;;;;;;;;14.10;97.50;;;;;;5086870;28;19955;-79
2022/06/10 02:55:44;;;;;;;;;;;14.10;97.60;;;;;;5090114;28;20382;-79
2022/06/10 03:01:13;;;;;;;;;;;14.00;97.50;;;;;;5085009;28;19929;-80
2022/06/10 03:03:52;;;;;;;;;;;14.00;97.60;;;;;;5085840;28;19952;-79
2022/06/10 03:06:22;;;;;;;;;;;14.00;97.60;;;;;;5087026;28;19974;-79
2022/06/10 03:08:53;;;;;;;;;;;14.00;97.60;;;;;;5068093;28;19924;-80
2022/06/10 03:11:26;;;;;;;;;;;14.00;97.50;;;;;;5090407;28;19924;-79
2022/06/10 03:14:05;;;;;;;;;;;14.00;97.50;;;;;;5069094;28;20385;-80
2022/06/10 03:16:40;;;;;;;;;;;13.90;97.50;;;;;;5065236;28;19928;-80
2022/06/10 03:19:17;;;;;;;;;;;13.80;97.20;;;;;;5079379;28;19945;-80
2022/06/10 03:21:53;;;;;;;;;;;13.90;97.60;;;;;;5091447;28;19924;-80
2022/06/10 03:24:25;;;;;;;;;;;13.90;97.50;;;;;;5091006;28;19924;-80
2022/06/10 03:26:54;;;;;;;;;;;13.90;97.50;;;;;;5069597;28;19969;-79
2022/06/10 03:29:26;;;;;;;;;;;13.90;97.50;;;;;;5095899;28;20366;-80
2022/06/10 03:31:55;;;;;;;;;;;13.90;97.50;;;;;;5091434;28;20352;-80
2022/06/10 03:34:27;;;;;;;;;;;13.80;97.50;;;;;;5091307;28;20426;-80
2022/06/10 03:36:57;;;;;;;;;;;13.80;97.50;;;;;;5100106;28;19924;-79
2022/06/10 03:39:24;;;;;;;;;;;13.80;97.50;;;;;;5090289;28;20008;-79
2022/06/10 03:41:56;;;;;;;;;;;13.80;97.50;;;;;;5092355;28;19928;-79
2022/06/10 03:44:24;;;;;;;;;;;13.80;97.50;;;;;;5097200;28;20397;-79
2022/06/10 03:46:52;;;;;;;;;;;13.80;97.50;;;;;;5091523;28;19924;-80
2022/06/10 03:49:22;;;;;;;;;;;13.80;97.50;;;;;;5094445;28;19924;-79
2022/06/10 03:51:51;;;;;;;;;;;13.70;97.50;;;;;;5087782;28;19924;-79
2022/06/10 03:54:19;;;;;;;;;;;13.70;97.40;;;;;;5093026;28;20332;-80
2022/06/10 03:56:47;;;;;;;;;;;13.70;97.50;;;;;;5073284;28;19924;-79
2022/06/10 03:59:13;;;;;;;;;;;13.70;97.40;;;;;;5091946;28;19928;-80
2022/06/10 04:01:40;;;;;;;;;;;13.60;97.40;;;;;;5088870;28;20459;-79
2022/06/10 04:04:07;;;;;;;;;;;13.70;97.50;;;;;;5095536;28;19924;-80
2022/06/10 04:06:34;;;;;;;;;;;13.70;97.50;;;;;;5092534;28;20634;-79
2022/06/10 04:09:02;;;;;;;;;;;13.60;97.50;;;;;;5090274;28;19984;-80
2022/06/10 04:11:29;;;;;;;;;;;13.60;97.50;;;;;;5084856;28;19970;-79
2022/06/10 04:13:56;;;;;;;;;;;13.60;97.50;;;;;;5093338;28;19923;-79
2022/06/10 04:16:23;;;;;;;;;;;13.60;97.40;;;;;;5090747;28;19932;-79
2022/06/10 04:18:50;;;;;;;;;;;13.60;97.50;;;;;;5064804;28;19932;-79
2022/06/10 04:21:17;;;;;;;;;;;13.60;97.50;;;;;;5073579;28;20408;-79
2022/06/10 04:23:44;;;;;;;;;;;13.60;97.50;;;;;;5092511;28;19935;-79
2022/06/10 04:26:13;;;;;;;;;;;13.50;97.50;;;;;;5094456;28;19931;-80
2022/06/10 04:28:42;;;;;;;;;;;13.50;97.50;;;;;;5085824;28;19928;-80
2022/06/10 04:31:09;;;;;;;;;;;13.50;97.50;;;;;;5073660;28;20011;-79
2022/06/10 04:33:37;;;;;;;;;;;13.50;97.50;;;;;;5077099;28;19982;-79
2022/06/10 04:36:04;;;;;;;;;;;13.50;97.50;;;;;;5086672;28;20012;-80
2022/06/10 04:38:32;;;;;;;;;;;13.50;97.30;;;;;;5093485;28;20038;-79
2022/06/10 04:40:59;;;;;;;;;;;13.30;97.30;;;;;;5091361;28;19932;-79
2022/06/10 04:43:27;;;;;;;;;;;13.20;97.50;;;;;;5093007;28;19928;-79
2022/06/10 04:45:55;;;;;;;;;;;13.10;97.80;;;;;;5088952;28;19991;-79
2022/06/10 04:48:22;;;;;;;;;;;13.00;98.00;;;;;;5087823;28;19963;-79
2022/06/10 04:50:49;;;;;;;;;;;13.00;98.20;;;;;;5090446;28;19928;-80
2022/06/10 04:53:16;;;;;;;;;;;12.90;98.30;;;;;;5091805;28;20382;-80
2022/06/10 04:55:42;;;;;;;;;;;12.90;98.40;;;;;;5088343;28;19924;-80
2022/06/10 04:58:09;;;;;;;;;;;12.90;98.50;;;;;;5093397;28;19931;-80
2022/06/10 05:00:39;;;;;;;;;;;12.90;98.60;;;;;;5091217;28;20347;-79
2022/06/10 05:03:07;;;;;;;;;;;13.00;98.80;;;;;;5087083;28;20036;-80
2022/06/10 05:05:34;;;;;;;;;;;13.00;98.80;;;;;;5094120;28;19927;-79
2022/06/10 05:08:00;;;;;;;;;;;13.00;98.80;;;;;;5089863;28;19928;-80
2022/06/10 05:10:28;;;;;;;;;;;13.00;98.80;;;;;;5075336;28;19928;-80
2022/06/10 05:12:55;;;;;;;;;;;13.10;98.80;;;;;;5069520;28;19934;-79
2022/06/10 05:15:22;;;;;;;;;;;13.10;98.90;;;;;;5093758;28;19924;-80
2022/06/10 05:17:52;;;;;;;;;;;13.10;99.00;;;;;;5071257;28;19954;-80
2022/06/10 05:20:20;;;;;;;;;;;13.10;98.90;;;;;;5089078;28;19995;-80
2022/06/10 05:22:47;;;;;;;;;;;13.10;99.00;;;;;;5086274;28;19975;-80
2022/06/10 05:25:14;;;;;;;;;;;13.20;99.00;;;;;;5089967;28;19931;-80
2022/06/10 05:27:41;;;;;;;;;;;13.20;99.10;;;;;;5088047;28;19928;-80
2022/06/10 05:30:09;;;;;;;;;;;13.20;99.10;;;;;;5092871;28;20546;-79
2022/06/10 05:32:36;;;;;;;;;;;13.30;99.10;;;;;;5091381;28;19967;-80
2022/06/10 05:35:05;;;;;;;;;;;13.30;99.10;;;;;;5073399;28;20554;-80
2022/06/10 05:37:33;;;;;;;;;;;13.30;99.10;;;;;;5088973;28;19923;-80
2022/06/10 05:40:00;;;;;;;;;;;13.40;99.20;;;;;;5090651;28;19932;-80
2022/06/10 05:42:27;;;;;;;;;;;13.40;99.30;;;;;;5092321;28;19993;-80
2022/06/10 05:44:54;;;;;;;;;;;13.40;99.20;;;;;;5071680;28;20383;-80
2022/06/10 05:47:21;;;;;;;;;;;13.40;99.20;;;;;;5091131;28;19932;-80
2022/06/10 05:49:50;;;;;;;;;;;13.50;99.20;;;;;;5090392;28;20285;-80
2022/06/10 05:52:19;;;;;;;;;;;13.50;99.30;;;;;;5086599;28;20356;-80
2022/06/10 05:54:47;;;;;;;;;;;13.50;99.30;;;;;;5091399;28;19928;-80
2022/06/10 05:57:14;;;;;;;;;;;13.60;99.30;;;;;;5074085;28;19932;-80
2022/06/10 05:59:42;;;;;;;;;;;13.60;99.30;;;;;;5090212;28;20023;-80
2022/06/10 06:02:10;;;;;;;;;;;13.60;99.30;;;;;;5088964;28;19932;-80
2022/06/10 06:04:37;;;;;;;;;;;13.60;99.30;;;;;;5072867;28;19931;-80
2022/06/10 06:07:06;;;;;;;;;;;13.60;99.30;;;;;;5064188;28;20151;-81
2022/06/10 06:09:34;;;;;;;;;;;13.70;99.30;;;;;;5090519;28;19931;-81
2022/06/10 06:12:01;;;;;;;;;;;13.70;99.40;;;;;;5087003;28;19975;-80
2022/06/10 06:14:29;;;;;;;;;;;13.70;99.40;;;;;;5096951;28;20408;-80
2022/06/10 06:16:56;;;;;;;;;;;13.80;99.50;;;;;;5089398;28;19981;-80
2022/06/10 06:19:24;;;;;;;;;;;13.80;99.40;;;;;;5091631;28;19924;-80
2022/06/10 06:21:51;;;;;;;;;;;13.80;99.50;;;;;;5094734;28;20124;-80
2022/06/10 06:24:18;;;;;;;;;;;13.80;99.50;;;;;;5085720;28;19963;-80
2022/06/10 06:26:47;;;;;;;;;;;13.80;99.50;;;;;;5087196;28;19970;-80
2022/06/10 06:29:14;;;;;;;;;;;13.80;99.50;;;;;;5096929;28;20378;-80
2022/06/10 06:31:41;;;;;;;;;;;13.80;99.70;;;;;;5088749;28;20390;-79
2022/06/10 06:34:08;;;;;;;;;;;13.90;99.70;;;;;;5090675;28;19989;-80
2022/06/10 06:36:38;;;;;;;;;;;13.90;99.70;;;;;;5073519;28;19928;-81
2022/06/10 06:39:05;;;;;;;;;;;13.90;99.80;;;;;;5070745;28;19954;-80
2022/06/10 06:41:32;;;;;;;;;;;13.90;99.90;;;;;;5075830;28;20283;-80
2022/06/10 06:44:01;;;;;;;;;;;14.00;99.90;;;;;;5087032;28;19989;-80
2022/06/10 06:46:27;;;;;;;;;;;14.00;99.90;;;;;;5073696;28;19930;-80
2022/06/10 06:48:56;;;;;;;;;;;14.00;99.90;;;;;;5089658;28;19936;-80
2022/06/10 06:51:23;;;;;;;;;;;14.00;99.90;;;;;;5088858;28;19924;-80
2022/06/10 06:53:50;;;;;;;;;;;14.00;99.90;;;;;;5092471;28;19928;-80
2022/06/10 06:56:17;;;;;;;;;;;14.00;99.90;;;;;;5078335;28;19924;-80
2022/06/10 06:58:47;;;;;;;;;;;14.10;99.90;;;;;;5074652;28;19924;-81
2022/06/10 07:01:15;;;;;;;;;;;14.10;99.90;;;;;;5091272;28;19924;-80
2022/06/10 07:03:42;;;;;;;;;;;14.10;99.90;;;;;;5092727;28;19938;-80
2022/06/10 07:06:09;;;;;;;;;;;14.10;99.90;;;;;;5072892;28;19928;-81
2022/06/10 07:08:35;;;;;;;;;;;14.10;99.90;;;;;;5088797;28;20155;-80
2022/06/10 07:11:03;;;;;;;;;;;14.20;99.90;;;;;;5092114;28;19925;-80
2022/06/10 07:13:30;;;;;;;;;;;14.20;99.90;;;;;;5090718;28;19977;-80
2022/06/10 07:15:58;;;;;;;;;;;14.20;99.90;;;;;;5066227;28;19924;-80
2022/06/10 07:18:26;;;;;;;;;;;14.20;99.90;;;;;;5090369;28;19966;-80
2022/06/10 07:20:53;;;;;;;;;;;14.30;99.90;;;;;;5096918;28;20075;-80
2022/06/10 07:23:20;;;;;;;;;;;14.30;99.90;;;;;;5091030;28;19925;-80
2022/06/10 07:25:47;;;;;;;;;;;14.40;99.90;;;;;;5073912;28;19942;-80
2022/06/10 07:28:14;;;;;;;;;;;14.40;99.90;;;;;;5092709;28;19954;-80
2022/06/10 07:30:42;;;;;;;;;;;14.40;99.90;;;;;;5074491;28;19936;-80
2022/06/10 07:33:09;;;;;;;;;;;14.40;99.90;;;;;;5069938;28;20405;-80
2022/06/10 07:35:37;;;;;;;;;;;14.40;99.90;;;;;;5074424;28;20054;-80
2022/06/10 07:38:05;;;;;;;;;;;14.50;99.90;;;;;;5090961;28;19954;-80
2022/06/10 07:43:18;;;;;;;;;;;14.50;99.90;;;;;;5067198;28;20026;-81
2022/06/10 07:45:45;;;;;;;;;;;14.60;99.90;;;;;;5090650;28;19927;-80
2022/06/10 07:48:12;;;;;;;;;;;14.60;99.90;;;;;;5092119;28;19924;-80
2022/06/10 07:50:42;;;;;;;;;;;14.70;99.90;;;;;;5071887;28;19932;-80
2022/06/10 07:53:08;;;;;;;;;;;14.70;99.90;;;;;;5088434;28;20029;-80
2022/06/10 07:55:35;;;;;;;;;;;14.70;99.90;;;;;;5091476;28;19928;-80
2022/06/10 07:58:02;;;;;;;;;;;14.70;99.90;;;;;;5093297;28;19932;-80
2022/06/10 08:00:29;;;;;;;;;;;14.80;99.90;;;;;;5089748;28;19928;-80
2022/06/10 08:02:57;;;;;;;;;;;14.80;99.90;;;;;;5089676;28;19932;-80
2022/06/10 08:05:24;;;;;;;;;;;14.80;99.90;;;;;;5090852;28;19924;-80
2022/06/10 08:07:52;;;;;;;;;;;14.80;99.90;;;;;;5091602;28;19928;-80
2022/06/10 08:10:20;;;;;;;;;;;14.80;99.90;;;;;;5069668;28;19924;-80
2022/06/10 08:12:48;;;;;;;;;;;14.80;99.90;;;;;;5091471;28;19928;-80
2022/06/10 08:15:15;;;;;;;;;;;14.80;99.90;;;;;;5091665;28;19970;-80
2022/06/10 08:17:42;;;;;;;;;;;14.90;99.90;;;;;;5072117;28;19928;-80
2022/06/10 08:20:12;;;;;;;;;;;14.90;99.90;;;;;;5091484;28;19932;-80
2022/06/10 08:22:37;;;;;;;;;;;14.90;99.90;;;;;;5073496;28;19956;-80
2022/06/10 08:25:08;;;;;;;;;;;14.90;99.90;;;;;;5090695;28;20455;-80
2022/06/10 08:27:35;;;;;;;;;;;15.00;99.90;;;;;;5084334;28;20023;-80
2022/06/10 08:30:03;;;;;;;;;;;15.00;99.90;;;;;;5073833;28;20030;-80
2022/06/10 08:32:30;;;;;;;;;;;15.00;99.90;;;;;;5093135;28;19930;-80
2022/06/10 08:34:57;;;;;;;;;;;15.00;99.90;;;;;;5085514;28;20390;-80
2022/06/10 08:37:24;;;;;;;;;;;15.00;99.90;;;;;;5090412;28;19938;-80
2022/06/10 08:39:51;;;;;;;;;;;15.00;99.90;;;;;;5091089;28;19935;-80
2022/06/10 08:42:26;;;;;;;;;;;15.00;99.90;;;;;;5068257;28;19925;-80
2022/06/10 08:44:54;;;;;;;;;;;15.10;99.90;;;;;;5094816;28;19928;-80
2022/06/10 08:47:31;;;;;;;;;;;15.10;99.90;;;;;;5071745;28;19924;-80
2022/06/10 08:50:16;;;;;;;;;;;15.20;99.90;;;;;;5092699;28;20177;-80
2022/06/10 08:52:47;;;;;;;;;;;15.20;99.90;;;;;;5091477;28;20015;-80
2022/06/10 08:55:19;;;;;;;;;;;15.20;99.90;;;;;;5088011;28;19930;-80
2022/06/10 08:57:48;;;;;;;;;;;15.20;99.90;;;;;;5072883;28;19928;-80
2022/06/10 09:00:18;;;;;;;;;;;15.20;99.90;;;;;;5086507;28;19927;-81
2022/06/10 09:02:46;;;;;;;;;;;15.20;99.90;;;;;;5070941;28;19950;-80
2022/06/10 09:05:16;;;;;;;;;;;15.30;99.90;;;;;;5067289;28;19955;-80
2022/06/10 09:07:44;;;;;;;;;;;15.30;99.90;;;;;;5086034;28;19931;-80
2022/06/10 09:10:19;;;;;;;;;;;15.30;99.90;;;;;;5090967;28;19924;-80
2022/06/10 09:13:00;;;;;;;;;;;15.30;99.90;;;;;;5094116;28;20294;-80
2022/06/10 09:15:28;;;;;;;;;;;15.40;99.90;;;;;;5068312;28;19956;-80
2022/06/10 09:17:58;;;;;;;;;;;15.40;99.90;;;;;;5066193;28;20419;-80
2022/06/10 09:20:28;;;;;;;;;;;15.40;99.90;;;;;;5094142;28;19985;-80
2022/06/10 09:22:58;;;;;;;;;;;15.40;99.90;;;;;;5080715;28;20479;-81
2022/06/10 09:25:27;;;;;;;;;;;15.50;99.90;;;;;;5090038;28;19928;-80
2022/06/10 09:27:57;;;;;;;;;;;15.40;99.90;;;;;;5071072;28;20019;-80
2022/06/10 09:30:27;;;;;;;;;;;15.50;99.90;;;;;;5088569;28;20545;-80
2022/06/10 09:32:57;;;;;;;;;;;15.50;99.90;;;;;;5090364;28;19950;-80
2022/06/10 09:35:29;;;;;;;;;;;15.50;99.90;;;;;;5070085;28;19924;-80
2022/06/10 09:38:00;;;;;;;;;;;15.60;99.90;;;;;;5069461;28;19924;-80
2022/06/10 09:40:38;;;;;;;;;;;15.60;99.90;;;;;;5086460;28;19932;-80
2022/06/10 09:43:22;;;;;;;;;;;15.60;99.90;;;;;;5092279;28;19988;-80
2022/06/10 09:45:56;;;;;;;;;;;15.60;99.90;;;;;;5089476;28;19931;-80
2022/06/10 09:48:29;;;;;;;;;;;15.70;99.90;;;;;;5068074;28;19928;-80
2022/06/10 09:51:00;;;;;;;;;;;15.70;99.90;;;;;;5062973;28;20406;-80
2022/06/10 09:53:32;;;;;;;;;;;15.70;99.90;;;;;;5091406;28;20305;-80
2022/06/10 09:56:17;;;;;;;;;;;15.70;99.90;;;;;;5069171;28;19959;-80
2022/06/10 09:58:49;;;;;;;;;;;15.70;99.90;;;;;;5084631;28;20283;-80
2022/06/10 10:01:27;;;;;;;;;;;15.80;99.90;;;;;;5083414;28;19939;-81
2022/06/10 10:04:09;;;;;;;;;;;15.80;99.90;;;;;;5067721;28;19958;-81
2022/06/10 10:06:38;;;;;;;;;;;15.80;99.90;;;;;;5065771;28;20023;-80
2022/06/10 10:09:10;;;;;;;;;;;15.80;99.90;;;;;;5064047;28;19963;-80
2022/06/10 10:11:39;;;;;;;;;;;15.80;99.90;;;;;;5089815;28;19924;-80
2022/06/10 10:14:10;;;;;;;;;;;15.90;99.90;;;;;;5068531;28;20041;-80
2022/06/10 10:16:44;;;;;;;;;;;15.90;99.90;;;;;;5086594;28;19928;-80
2022/06/10 10:19:17;;;;;;;;;;;16.00;99.90;;;;;;5093254;28;19924;-80
2022/06/10 10:21:47;;;;;;;;;;;16.00;99.90;;;;;;5090039;28;20030;-80
2022/06/10 10:24:16;;;;;;;;;;;16.00;99.90;;;;;;5083946;28;21262;-80
2022/06/10 10:26:44;;;;;;;;;;;16.00;99.90;;;;;;5089381;28;19966;-80
2022/06/10 10:29:13;;;;;;;;;;;16.10;99.90;;;;;;5067394;28;20394;-80
2022/06/10 10:31:43;;;;;;;;;;;16.10;99.90;;;;;;5089190;28;19931;-81
2022/06/10 10:34:17;;;;;;;;;;;16.10;99.90;;;;;;5089190;28;19959;-81
2022/06/10 10:36:49;;;;;;;;;;;16.20;99.70;;;;;;5090055;28;19924;-80
2022/06/10 10:39:18;;;;;;;;;;;16.20;99.70;;;;;;5069485;28;19928;-80
2022/06/10 10:41:46;;;;;;;;;;;16.20;99.60;;;;;;5085992;28;19959;-80
2022/06/10 10:44:26;;;;;;;;;;;16.20;99.60;;;;;;5069333;28;19924;-82
2022/06/10 10:47:02;;;;;;;;;;;16.20;99.50;;;;;;5087212;28;20394;-80
2022/06/10 10:49:30;;;;;;;;;;;16.30;99.60;;;;;;5085976;28;19924;-80
2022/06/10 10:51:57;;;;;;;;;;;16.30;99.40;;;;;;5087732;28;19938;-80
2022/06/10 10:54:27;;;;;;;;;;;16.30;99.50;;;;;;5090006;28;20398;-80
2022/06/10 10:56:54;;;;;;;;;;;16.30;99.50;;;;;;5088471;28;19936;-81
2022/06/10 10:59:24;;;;;;;;;;;16.40;99.50;;;;;;5084149;28;20414;-80
2022/06/10 11:01:51;;;;;;;;;;;16.40;99.40;;;;;;5089326;28;20453;-80
2022/06/10 11:04:25;;;;;;;;;;;16.50;99.50;;;;;;5088449;28;19931;-80
2022/06/10 11:06:58;;;;;;;;;;;16.50;99.40;;;;;;5080284;28;19935;-80
2022/06/10 11:09:26;;;;;;;;;;;16.50;99.40;;;;;;5086100;28;19924;-80
2022/06/10 11:11:54;;;;;;;;;;;16.50;99.30;;;;;;5088399;28;19928;-80
2022/06/10 11:14:23;;;;;;;;;;;16.60;99.20;;;;;;5067515;28;20383;-80
2022/06/10 11:17:00;;;;;;;;;;;16.60;99.40;;;;;;5088177;28;20408;-80
2022/06/10 11:19:40;;;;;;;;;;;16.60;99.30;;;;;;5084186;28;20412;-80
2022/06/10 11:22:16;;;;;;;;;;;16.60;99.40;;;;;;5065481;28;20425;-80
2022/06/10 11:24:44;;;;;;;;;;;16.60;99.30;;;;;;5081041;28;19928;-80
2022/06/10 11:27:19;;;;;;;;;;;16.70;99.40;;;;;;5087648;28;19936;-80
2022/06/10 11:29:57;;;;;;;;;;;16.70;99.30;;;;;;5087739;28;19939;-80
2022/06/10 11:32:26;;;;;;;;;;;16.70;99.30;;;;;;5076532;22;20719;-88
2022/06/10 11:34:58;;;;;;;;;;;16.80;99.30;;;;;;5086328;28;19977;-87
2022/06/10 11:37:28;;;;;;;;;;;16.80;99.40;;;;;;5082814;28;19933;-86
2022/06/10 11:40:02;;;;;;;;;;;16.80;99.40;;;;;;5072156;28;19940;-88
2022/06/10 11:42:31;;;;;;;;;;;16.90;99.30;;;;;;5055716;28;20027;-88
2022/06/10 11:45:03;;;;;;;;;;;16.90;99.40;;;;;;5058105;28;19951;-86
2022/06/10 11:47:31;;;;;;;;;;;16.90;99.40;;;;;;5063672;28;19932;-87
2022/06/10 11:50:02;;;;;;;;;;;16.90;99.30;;;;;;5076168;28;19929;-87
2022/06/10 11:52:31;;;;;;;;;;;17.00;99.20;;;;;;5061434;28;20426;-88
2022/06/10 11:55:03;;;;;;;;;;;17.00;99.40;;;;;;5055664;28;20572;-86
2022/06/10 12:00:23;;;;;;;;;;;17.10;99.20;;;;;;5077777;28;19960;-86
2022/06/10 12:02:57;;;;;;;;;;;17.20;99.10;;;;;;5081797;28;19931;-88
2022/06/10 12:05:28;;;;;;;;;;;17.20;99.40;;;;;;5070526;28;19924;-88
2022/06/10 12:08:00;;;;;;;;;;;17.20;99.40;;;;;;5066019;28;19959;-88
2022/06/10 12:10:29;;;;;;;;;;;17.20;99.30;;;;;;5064355;28;20015;-87
2022/06/10 12:12:57;;;;;;;;;;;17.30;99.30;;;;;;5081675;28;19938;-86
2022/06/10 12:15:25;;;;;;;;;;;17.30;99.40;;;;;;5082526;28;19924;-87
2022/06/10 12:17:55;;;;;;;;;;;17.40;99.50;;;;;;5081272;28;19972;-87
2022/06/10 12:20:27;;;;;;;;;;;17.40;99.50;;;;;;5082302;28;19924;-87
2022/06/10 12:22:55;;;;;;;;;;;17.50;99.70;;;;;;5079231;28;19995;-87
2022/06/10 12:25:23;;;;;;;;;;;17.50;99.80;;;;;;5087186;28;19960;-87
2022/06/10 12:27:54;;;;;;;;;;;17.50;99.90;;;;;;5083315;28;21450;-88
2022/06/10 12:30:24;;;;;;;;;;;17.60;99.90;;;;;;5080343;28;19924;-86
2022/06/10 12:32:54;;;;;;;;;;;17.60;99.90;;;;;;5062133;28;19953;-87
2022/06/10 12:35:25;;;;;;;;;;;17.70;99.80;;;;;;5077530;28;20337;-88
2022/06/10 12:37:55;;;;;;;;;;;17.70;99.90;;;;;;5082116;28;19924;-88
2022/06/10 12:40:27;;;;;;;;;;;17.80;99.90;;;;;;5071859;28;20392;-87
2022/06/10 12:42:56;;;;;;;;;;;17.80;99.90;;;;;;5073393;28;20019;-87
2022/06/10 12:45:25;;;;;;;;;;;17.90;99.90;;;;;;5060708;28;19925;-87
2022/06/10 12:47:56;;;;;;;;;;;17.90;99.90;;;;;;5082189;28;19936;-86
2022/06/10 12:50:24;;;;;;;;;;;18.00;99.90;;;;;;5078831;28;20435;-87
2022/06/10 12:53:04;;;;;;;;;;;18.00;99.90;;;;;;5083437;28;19978;-87
2022/06/10 12:55:35;;;;;;;;;;;18.10;99.90;;;;;;5087000;28;19925;-87
2022/06/10 12:58:02;;;;;;;;;;;18.20;99.90;;;;;;5067260;28;19924;-87
2022/06/10 13:00:38;;;;;;;;;;;18.20;99.90;;;;;;5077665;28;19956;-88
2022/06/10 13:03:22;;;;;;;;;;;18.30;99.60;;;;;;5082031;28;20444;-87
2022/06/10 13:05:50;;;;;;;;;;;18.30;99.50;;;;;;5067528;28;19924;-87
2022/06/10 13:08:32;;;;;;;;;;;18.40;99.20;;;;;;5078432;28;19929;-87
2022/06/10 13:11:00;;;;;;;;;;;18.40;99.50;;;;;;5078116;28;20310;-87
2022/06/10 13:13:27;;;;;;;;;;;18.40;99.50;;;;;;5082607;28;19992;-88
2022/06/10 13:15:55;;;;;;;;;;;18.50;99.60;;;;;;5069234;28;19924;-86
2022/06/10 13:18:26;;;;;;;;;;;18.50;99.80;;;;;;5063901;28;20357;-87
2022/06/10 13:20:53;;;;;;;;;;;18.50;99.90;;;;;;5059115;28;20575;-87
2022/06/10 13:23:21;;;;;;;;;;;18.60;99.90;;;;;;5063856;28;19932;-87
2022/06/10 13:25:49;;;;;;;;;;;18.60;99.90;;;;;;5059285;28;19928;-87
2022/06/10 13:28:20;;;;;;;;;;;18.60;99.90;;;;;;5067047;28;19928;-86
2022/06/10 13:30:49;;;;;;;;;;;18.60;99.90;;;;;;5060250;28;19935;-87
2022/06/10 13:33:17;;;;;;;;;;;18.70;99.90;;;;;;5082894;28;19985;-86
2022/06/10 13:35:55;;;;;;;;;;;18.70;99.90;;;;;;5090276;28;19925;-88
2022/06/10 13:38:25;;;;;;;;;;;18.70;99.90;;;;;;5081754;28;19924;-87
2022/06/10 13:40:52;;;;;;;;;;;;;;;;;;5084484;28;20011;-87
2022/06/10 13:43:26;;;;;;;;;;;18.80;99.80;;;;;;5079722;28;19931;-87
2022/06/10 13:45:53;;;;;;;;;;;18.80;99.90;;;;;;5061501;28;20295;-87
2022/06/10 13:48:21;;;;;;;;;;;18.80;99.90;;;;;;5062884;28;19936;-87
2022/06/10 13:53:38;;;;;;;;;;;18.90;99.50;;;;;;5074743;28;19991;-86
2022/06/10 13:56:06;;;;;;;;;;;19.00;99.70;;;;;;5087618;28;19931;-88
2022/06/10 13:58:35;;;;;;;;;;;;;;;;;;5066393;28;19924;-87
2022/06/10 14:01:06;;;;;;;;;;;19.10;99.10;;;;;;5082158;28;20291;-87
2022/06/10 14:03:41;;;;;;;;;;;19.10;99.50;;;;;;5068867;28;19968;-87
2022/06/10 14:06:16;;;;;;;;;;;19.20;99.70;;;;;;5060016;28;19924;-87
2022/06/10 14:08:46;;;;;;;;;;;19.20;99.60;;;;;;5073899;28;19934;-86
2022/06/10 14:11:14;;;;;;;;;;;19.30;99.40;;;;;;5058507;28;19925;-86
2022/06/10 14:13:48;;;;;;;;;;;19.30;99.00;;;;;;5062994;28;19940;-87
2022/06/10 14:16:17;;;;;;;;;;;19.40;98.30;;;;;;5081254;28;19956;-86
2022/06/10 14:18:45;;;;;;;;;;;19.50;97.50;;;;;;5066213;28;19925;-86
2022/06/10 14:21:13;;;;;;;;;;;19.50;97.60;;;;;;5081067;28;19929;-87
2022/06/10 14:23:55;;;;;;;;;;;19.60;98.10;;;;;;5064441;28;20582;-87
2022/06/10 14:26:24;;;;;;;;;;;19.60;97.50;;;;;;5074709;28;19925;-87
2022/06/10 14:28:51;;;;;;;;;;;19.70;97.50;;;;;;5081908;28;19936;-86
2022/06/10 14:31:26;;;;;;;;;;;19.70;98.00;;;;;;5079471;28;20332;-87
2022/06/10 14:33:55;;;;;;;;;;;19.70;98.50;;;;;;5061844;28;19924;-86
2022/06/10 14:36:23;;;;;;;;;;;19.70;98.70;;;;;;5061945;28;19925;-87
2022/06/10 14:39:04;;;;;;;;;;;19.80;98.80;;;;;;5084737;28;19932;-87
2022/06/10 14:41:32;;;;;;;;;;;19.80;98.90;;;;;;5078717;28;19928;-88
2022/06/10 14:44:02;;;;;;;;;;;19.80;98.90;;;;;;5064549;28;20372;-87